sensor_id;sensor_type;location;lat;lon;timestamp;temperature;humidity
3416;DHT22;1721;51.238;9.562;2023-05-07T00:01:56;14.60;99.90
3416;DHT22;1721;51.238;9.562;2023-05-07T00:04:22;14.50;99.90
3416;DHT22;1721;51.238;9.562;2023-05-07T00:06:48;14.60;99.90
3416;DHT22;1721;51.238;9.562;2023-05-07T00:09:13;14.60;99.90
3416;DHT22;1721;51.238;9.562;2023-05-07T00:11:39;14.50;99.90
3416;DHT22;1721;51.238;9.562;2023-05-07T00:14:05;14.50;99.90
3416;DHT22;1721;51.238;9.562;2023-05-07T00:16:31;14.50;99.90
3416;DHT22;1721;51.238;9.562;2023-05-07T00:18:56;14.40;99.90
3416;DHT22;1721;51.238;9.562;2023-05-07T00:21:22;14.50;99.90
3416;DHT22;1721;51.238;9.562;2023-05-07T00:23:47;14.50;99.90
3416;DHT22;1721;51.238;9.562;2023-05-07T00:26:13;14.40;99.90
3416;DHT22;1721;51.238;9.562;2023-05-07T00:28:39;14.30;99.90
3416;DHT22;1721;51.238;9.562;2023-05-07T00:31:04;14.30;99.90
3416;DHT22;1721;51.238;9.562;2023-05-07T00:33:30;14.30;99.90
3416;DHT22;1721;51.238;9.562;2023-05-07T00:35:55;14.10;99.90
3416;DHT22;1721;51.238;9.562;2023-05-07T00:38:21;14.00;99.90
3416;DHT22;1721;51.238;9.562;2023-05-07T00:40:46;13.70;99.90
3416;DHT22;1721;51.238;9.562;2023-05-07T00:43:12;13.50;99.90
3416;DHT22;1721;51.238;9.562;2023-05-07T00:45:38;13.30;99.90
3416;DHT22;1721;51.238;9.562;2023-05-07T00:48:04;13.20;99.90
3416;DHT22;1721;51.238;9.562;2023-05-07T00:50:31;13.20;99.90
3416;DHT22;1721;51.238;9.562;2023-05-07T00:52:58;13.10;99.90
3416;DHT22;1721;51.238;9.562;2023-05-07T00:55:24;13.10;99.90
3416;DHT22;1721;51.238;9.562;2023-05-07T00:57:50;12.90;99.90
3416;DHT22;1721;51.238;9.562;2023-05-07T01:00:16;12.80;99.90
3416;DHT22;1721;51.238;9.562;2023-05-07T01:02:42;12.70;99.90
3416;DHT22;1721;51.238;9.562;2023-05-07T01:05:13;12.80;99.90
3416;DHT22;1721;51.238;9.562;2023-05-07T01:07:40;12.90;99.90
3416;DHT22;1721;51.238;9.562;2023-05-07T01:10:08;12.90;99.90
3416;DHT22;1721;51.238;9.562;2023-05-07T01:12:36;13.00;99.90
3416;DHT22;1721;51.238;9.562;2023-05-07T01:15:03;13.10;99.90
3416;DHT22;1721;51.238;9.562;2023-05-07T01:17:32;13.20;99.90
3416;DHT22;1721;51.238;9.562;2023-05-07T01:19:58;13.20;99.90
3416;DHT22;1721;51.238;9.562;2023-05-07T01:22:31;13.30;99.90
3416;DHT22;1721;51.238;9.562;2023-05-07T01:24:58;13.40;99.90
3416;DHT22;1721;51.238;9.562;2023-05-07T01:27:25;13.50;99.90
3416;DHT22;1721;51.238;9.562;2023-05-07T01:29:51;13.60;99.90
3416;DHT22;1721;51.238;9.562;2023-05-07T01:32:20;13.60;99.90
3416;DHT22;1721;51.238;9.562;2023-05-07T01:34:48;13.70;99.90
3416;DHT22;1721;51.238;9.562;2023-05-07T01:37:14;13.60;99.90
3416;DHT22;1721;51.238;9.562;2023-05-07T01:39:42;13.50;99.90
3416;DHT22;1721;51.238;9.562;2023-05-07T01:42:08;13.50;99.90
3416;DHT22;1721;51.238;9.562;2023-05-07T01:44:34;13.60;99.90
3416;DHT22;1721;51.238;9.562;2023-05-07T01:47:00;13.70;99.90
3416;DHT22;1721;51.238;9.562;2023-05-07T01:49:26;13.40;99.90
3416;DHT22;1721;51.238;9.562;2023-05-07T01:51:52;13.50;99.90
3416;DHT22;1721;51.238;9.562;2023-05-07T01:54:17;13.60;99.90
3416;DHT22;1721;51.238;9.562;2023-05-07T01:56:43;13.70;99.90
3416;DHT22;1721;51.238;9.562;2023-05-07T01:59:09;13.70;99.90
3416;DHT22;1721;51.238;9.562;2023-05-07T02:01:34;13.70;99.90
3416;DHT22;1721;51.238;9.562;2023-05-07T02:04:00;13.80;99.90
3416;DHT22;1721;51.238;9.562;2023-05-07T02:06:26;13.80;99.90
3416;DHT22;1721;51.238;9.562;2023-05-07T02:08:51;13.80;99.90
3416;DHT22;1721;51.238;9.562;2023-05-07T02:11:17;13.90;99.90
3416;DHT22;1721;51.238;9.562;2023-05-07T02:13:42;13.90;99.90
3416;DHT22;1721;51.238;9.562;2023-05-07T02:16:08;13.90;99.90
3416;DHT22;1721;51.238;9.562;2023-05-07T02:18:33;14.00;99.90
3416;DHT22;1721;51.238;9.562;2023-05-07T02:20:59;13.90;99.90
3416;DHT22;1721;51.238;9.562;2023-05-07T02:23:26;13.80;99.90
3416;DHT22;1721;51.238;9.562;2023-05-07T02:25:51;13.70;99.90
3416;DHT22;1721;51.238;9.562;2023-05-07T02:28:17;13.80;99.90
3416;DHT22;1721;51.238;9.562;2023-05-07T02:30:42;13.80;99.90
3416;DHT22;1721;51.238;9.562;2023-05-07T02:33:08;13.80;99.90
3416;DHT22;1721;51.238;9.562;2023-05-07T02:35:34;13.90;99.90
3416;DHT22;1721;51.238;9.562;2023-05-07T02:37:59;14.00;99.90
3416;DHT22;1721;51.238;9.562;2023-05-07T02:40:25;14.00;99.90
3416;DHT22;1721;51.238;9.562;2023-05-07T02:42:50;14.00;99.90
3416;DHT22;1721;51.238;9.562;2023-05-07T02:45:16;14.10;99.90
3416;DHT22;1721;51.238;9.562;2023-05-07T02:47:42;14.10;99.90
3416;DHT22;1721;51.238;9.562;2023-05-07T02:50:07;14.20;99.90
3416;DHT22;1721;51.238;9.562;2023-05-07T02:52:33;14.10;99.90
3416;DHT22;1721;51.238;9.562;2023-05-07T02:54:58;14.00;99.90
3416;DHT22;1721;51.238;9.562;2023-05-07T02:57:24;14.10;99.90
3416;DHT22;1721;51.238;9.562;2023-05-07T02:59:49;13.90;99.90
3416;DHT22;1721;51.238;9.562;2023-05-07T03:02:16;13.60;99.90
3416;DHT22;1721;51.238;9.562;2023-05-07T03:04:41;13.60;99.90
3416;DHT22;1721;51.238;9.562;2023-05-07T03:07:07;13.70;99.90
3416;DHT22;1721;51.238;9.562;2023-05-07T03:09:33;13.80;99.90
3416;DHT22;1721;51.238;9.562;2023-05-07T03:11:58;13.80;99.90
3416;DHT22;1721;51.238;9.562;2023-05-07T03:14:24;13.90;99.90
3416;DHT22;1721;51.238;9.562;2023-05-07T03:16:49;13.80;99.90
3416;DHT22;1721;51.238;9.562;2023-05-07T03:19:15;13.80;99.90
3416;DHT22;1721;51.238;9.562;2023-05-07T03:21:41;13.90;99.90
3416;DHT22;1721;51.238;9.562;2023-05-07T03:24:06;13.90;99.90
3416;DHT22;1721;51.238;9.562;2023-05-07T03:26:32;14.00;99.90
3416;DHT22;1721;51.238;9.562;2023-05-07T03:28:58;14.00;99.90
3416;DHT22;1721;51.238;9.562;2023-05-07T03:31:23;14.00;99.90
3416;DHT22;1721;51.238;9.562;2023-05-07T03:33:53;13.90;99.90
3416;DHT22;1721;51.238;9.562;2023-05-07T03:36:20;13.70;99.90
3416;DHT22;1721;51.238;9.562;2023-05-07T03:38:45;13.50;99.90
3416;DHT22;1721;51.238;9.562;2023-05-07T03:41:11;13.40;99.90
3416;DHT22;1721;51.238;9.562;2023-05-07T03:43:37;13.40;99.90
3416;DHT22;1721;51.238;9.562;2023-05-07T03:46:03;13.20;99.90
3416;DHT22;1721;51.238;9.562;2023-05-07T03:48:28;12.80;99.90
3416;DHT22;1721;51.238;9.562;2023-05-07T03:50:54;12.60;99.90
3416;DHT22;1721;51.238;9.562;2023-05-07T03:53:19;12.50;99.90
3416;DHT22;1721;51.238;9.562;2023-05-07T03:55:45;12.60;99.90
3416;DHT22;1721;51.238;9.562;2023-05-07T03:58:10;12.60;99.90
3416;DHT22;1721;51.238;9.562;2023-05-07T04:00:36;12.40;99.90
3416;DHT22;1721;51.238;9.562;2023-05-07T04:03:04;12.20;99.90
3416;DHT22;1721;51.238;9.562;2023-05-07T04:05:30;12.30;99.90
3416;DHT22;1721;51.238;9.562;2023-05-07T04:07:58;12.60;99.90
3416;DHT22;1721;51.238;9.562;2023-05-07T04:10:23;12.70;99.90
3416;DHT22;1721;51.238;9.562;2023-05-07T04:12:49;12.80;99.90
3416;DHT22;1721;51.238;9.562;2023-05-07T04:15:14;12.80;99.90
3416;DHT22;1721;51.238;9.562;2023-05-07T04:17:40;12.80;99.90
3416;DHT22;1721;51.238;9.562;2023-05-07T04:20:09;13.00;99.90
3416;DHT22;1721;51.238;9.562;2023-05-07T04:22:36;13.10;99.90
3416;DHT22;1721;51.238;9.562;2023-05-07T04:25:01;13.20;99.90
3416;DHT22;1721;51.238;9.562;2023-05-07T04:27:27;13.30;99.90
3416;DHT22;1721;51.238;9.562;2023-05-07T04:29:53;13.40;99.90
3416;DHT22;1721;51.238;9.562;2023-05-07T04:32:21;13.30;99.90
3416;DHT22;1721;51.238;9.562;2023-05-07T04:34:46;13.40;99.90
3416;DHT22;1721;51.238;9.562;2023-05-07T04:37:12;13.30;99.90
3416;DHT22;1721;51.238;9.562;2023-05-07T04:39:37;13.20;99.90
3416;DHT22;1721;51.238;9.562;2023-05-07T04:42:03;13.00;99.90
3416;DHT22;1721;51.238;9.562;2023-05-07T04:44:29;12.90;99.90
3416;DHT22;1721;51.238;9.562;2023-05-07T04:46:56;12.80;99.90
3416;DHT22;1721;51.238;9.562;2023-05-07T04:49:22;12.90;99.90
3416;DHT22;1721;51.238;9.562;2023-05-07T04:51:47;13.10;99.90
3416;DHT22;1721;51.238;9.562;2023-05-07T04:54:13;13.10;99.90
3416;DHT22;1721;51.238;9.562;2023-05-07T04:56:39;13.30;99.90
3416;DHT22;1721;51.238;9.562;2023-05-07T04:59:04;13.20;99.90
3416;DHT22;1721;51.238;9.562;2023-05-07T05:01:31;13.20;99.90
3416;DHT22;1721;51.238;9.562;2023-05-07T05:03:56;13.30;99.90
3416;DHT22;1721;51.238;9.562;2023-05-07T05:06:22;13.50;99.90
3416;DHT22;1721;51.238;9.562;2023-05-07T05:08:48;13.50;99.90
3416;DHT22;1721;51.238;9.562;2023-05-07T05:11:13;13.60;99.90
3416;DHT22;1721;51.238;9.562;2023-05-07T05:13:39;13.70;99.90
3416;DHT22;1721;51.238;9.562;2023-05-07T05:16:05;13.70;99.90
3416;DHT22;1721;51.238;9.562;2023-05-07T05:18:31;13.70;99.90
3416;DHT22;1721;51.238;9.562;2023-05-07T05:20:56;13.70;99.90
3416;DHT22;1721;51.238;9.562;2023-05-07T05:23:22;13.70;99.90
3416;DHT22;1721;51.238;9.562;2023-05-07T05:25:47;13.70;99.90
3416;DHT22;1721;51.238;9.562;2023-05-07T05:28:13;13.80;99.90
3416;DHT22;1721;51.238;9.562;2023-05-07T05:30:39;13.80;99.90
3416;DHT22;1721;51.238;9.562;2023-05-07T05:33:05;13.80;99.90
3416;DHT22;1721;51.238;9.562;2023-05-07T05:35:30;13.90;99.90
3416;DHT22;1721;51.238;9.562;2023-05-07T05:37:57;13.90;99.90
3416;DHT22;1721;51.238;9.562;2023-05-07T05:40:22;13.80;99.90
3416;DHT22;1721;51.238;9.562;2023-05-07T05:42:48;13.90;99.90
3416;DHT22;1721;51.238;9.562;2023-05-07T05:45:14;13.90;99.90
3416;DHT22;1721;51.238;9.562;2023-05-07T05:47:39;13.90;99.90
3416;DHT22;1721;51.238;9.562;2023-05-07T05:50:06;13.90;99.90
3416;DHT22;1721;51.238;9.562;2023-05-07T05:52:32;14.00;99.90
3416;DHT22;1721;51.238;9.562;2023-05-07T05:54:57;14.10;99.90
3416;DHT22;1721;51.238;9.562;2023-05-07T05:57:23;14.20;99.90
3416;DHT22;1721;51.238;9.562;2023-05-07T05:59:48;14.20;99.90
3416;DHT22;1721;51.238;9.562;2023-05-07T06:02:14;14.20;99.90
3416;DHT22;1721;51.238;9.562;2023-05-07T06:04:40;14.30;99.90
3416;DHT22;1721;51.238;9.562;2023-05-07T06:07:05;14.40;99.90
3416;DHT22;1721;51.238;9.562;2023-05-07T06:09:31;14.50;99.90
3416;DHT22;1721;51.238;9.562;2023-05-07T06:11:56;14.60;99.90
3416;DHT22;1721;51.238;9.562;2023-05-07T06:14:22;14.70;99.90
3416;DHT22;1721;51.238;9.562;2023-05-07T06:16:48;14.80;99.90
3416;DHT22;1721;51.238;9.562;2023-05-07T06:19:13;14.70;99.90
3416;DHT22;1721;51.238;9.562;2023-05-07T06:21:39;14.60;99.90
3416;DHT22;1721;51.238;9.562;2023-05-07T06:24:05;14.60;99.90
3416;DHT22;1721;51.238;9.562;2023-05-07T06:26:31;14.50;99.90
3416;DHT22;1721;51.238;9.562;2023-05-07T06:28:57;14.50;99.90
3416;DHT22;1721;51.238;9.562;2023-05-07T06:31:22;14.30;99.90
3416;DHT22;1721;51.238;9.562;2023-05-07T06:33:49;14.40;99.90
3416;DHT22;1721;51.238;9.562;2023-05-07T06:36:14;14.30;99.90
3416;DHT22;1721;51.238;9.562;2023-05-07T06:38:40;14.30;99.90
3416;DHT22;1721;51.238;9.562;2023-05-07T06:41:06;14.20;99.90
3416;DHT22;1721;51.238;9.562;2023-05-07T06:43:32;14.30;99.90
3416;DHT22;1721;51.238;9.562;2023-05-07T06:45:58;14.30;99.90
3416;DHT22;1721;51.238;9.562;2023-05-07T06:48:24;14.40;99.90
3416;DHT22;1721;51.238;9.562;2023-05-07T06:50:50;14.50;99.90
3416;DHT22;1721;51.238;9.562;2023-05-07T06:53:15;14.60;99.90
3416;DHT22;1721;51.238;9.562;2023-05-07T06:55:41;14.70;99.90
3416;DHT22;1721;51.238;9.562;2023-05-07T06:58:07;14.80;99.90
3416;DHT22;1721;51.238;9.562;2023-05-07T07:00:32;14.80;99.90
3416;DHT22;1721;51.238;9.562;2023-05-07T07:02:58;14.70;99.90
3416;DHT22;1721;51.238;9.562;2023-05-07T07:05:24;14.70;99.90
3416;DHT22;1721;51.238;9.562;2023-05-07T07:07:50;14.90;99.90
3416;DHT22;1721;51.238;9.562;2023-05-07T07:10:21;14.60;99.90
3416;DHT22;1721;51.238;9.562;2023-05-07T07:12:48;14.60;99.90
3416;DHT22;1721;51.238;9.562;2023-05-07T07:15:14;14.70;99.90
3416;DHT22;1721;51.238;9.562;2023-05-07T07:17:40;14.60;99.90
3416;DHT22;1721;51.238;9.562;2023-05-07T07:20:06;14.90;99.90
3416;DHT22;1721;51.238;9.562;2023-05-07T07:22:32;15.10;99.90
3416;DHT22;1721;51.238;9.562;2023-05-07T07:24:57;15.40;99.90
3416;DHT22;1721;51.238;9.562;2023-05-07T07:27:23;15.60;99.90
3416;DHT22;1721;51.238;9.562;2023-05-07T07:29:48;15.10;99.80
3416;DHT22;1721;51.238;9.562;2023-05-07T07:32:14;14.80;99.90
3416;DHT22;1721;51.238;9.562;2023-05-07T07:34:40;15.00;99.90
3416;DHT22;1721;51.238;9.562;2023-05-07T07:37:05;14.90;99.90
3416;DHT22;1721;51.238;9.562;2023-05-07T07:39:32;15.00;99.90
3416;DHT22;1721;51.238;9.562;2023-05-07T07:41:58;14.80;99.90
3416;DHT22;1721;51.238;9.562;2023-05-07T07:44:23;14.70;99.90
3416;DHT22;1721;51.238;9.562;2023-05-07T07:46:49;14.90;99.90
3416;DHT22;1721;51.238;9.562;2023-05-07T07:49:16;15.00;99.90
3416;DHT22;1721;51.238;9.562;2023-05-07T07:51:42;15.10;99.90
3416;DHT22;1721;51.238;9.562;2023-05-07T07:54:08;15.60;99.90
3416;DHT22;1721;51.238;9.562;2023-05-07T07:56:34;15.80;99.80
3416;DHT22;1721;51.238;9.562;2023-05-07T07:59:00;15.80;99.90
3416;DHT22;1721;51.238;9.562;2023-05-07T08:01:25;15.90;99.50
3416;DHT22;1721;51.238;9.562;2023-05-07T08:03:52;16.20;99.20
3416;DHT22;1721;51.238;9.562;2023-05-07T08:06:18;16.60;99.00
3416;DHT22;1721;51.238;9.562;2023-05-07T08:08:44;17.00;98.70
3416;DHT22;1721;51.238;9.562;2023-05-07T08:11:09;17.00;97.50
3416;DHT22;1721;51.238;9.562;2023-05-07T08:13:36;16.90;97.00
3416;DHT22;1721;51.238;9.562;2023-05-07T08:16:01;16.90;97.10
3416;DHT22;1721;51.238;9.562;2023-05-07T08:18:27;16.80;97.30
3416;DHT22;1721;51.238;9.562;2023-05-07T08:20:54;16.60;97.80
3416;DHT22;1721;51.238;9.562;2023-05-07T08:23:20;16.50;98.50
3416;DHT22;1721;51.238;9.562;2023-05-07T08:25:46;16.70;98.30
3416;DHT22;1721;51.238;9.562;2023-05-07T08:28:11;16.60;97.80
3416;DHT22;1721;51.238;9.562;2023-05-07T08:30:37;16.60;98.20
3416;DHT22;1721;51.238;9.562;2023-05-07T08:33:02;16.80;98.00
3416;DHT22;1721;51.238;9.562;2023-05-07T08:35:28;17.10;97.10
3416;DHT22;1721;51.238;9.562;2023-05-07T08:37:54;16.80;97.60
3416;DHT22;1721;51.238;9.562;2023-05-07T08:40:22;16.90;97.60
3416;DHT22;1721;51.238;9.562;2023-05-07T08:42:49;17.10;98.30
3416;DHT22;1721;51.238;9.562;2023-05-07T08:45:18;17.00;97.80
3416;DHT22;1721;51.238;9.562;2023-05-07T08:47:46;17.00;98.60
3416;DHT22;1721;51.238;9.562;2023-05-07T08:50:12;17.30;98.10
3416;DHT22;1721;51.238;9.562;2023-05-07T08:52:39;17.40;96.40
3416;DHT22;1721;51.238;9.562;2023-05-07T08:55:06;17.60;96.10
3416;DHT22;1721;51.238;9.562;2023-05-07T08:57:32;17.40;95.80
3416;DHT22;1721;51.238;9.562;2023-05-07T08:59:58;16.90;96.60
3416;DHT22;1721;51.238;9.562;2023-05-07T09:02:23;16.70;97.20
3416;DHT22;1721;51.238;9.562;2023-05-07T09:04:49;16.70;97.30
3416;DHT22;1721;51.238;9.562;2023-05-07T09:07:15;16.80;98.30
3416;DHT22;1721;51.238;9.562;2023-05-07T09:09:40;16.70;97.80
3416;DHT22;1721;51.238;9.562;2023-05-07T09:12:06;16.70;97.40
3416;DHT22;1721;51.238;9.562;2023-05-07T09:14:31;16.70;97.20
3416;DHT22;1721;51.238;9.562;2023-05-07T09:16:57;16.50;96.50
3416;DHT22;1721;51.238;9.562;2023-05-07T09:19:24;16.10;96.70
3416;DHT22;1721;51.238;9.562;2023-05-07T09:21:50;15.80;98.10
3416;DHT22;1721;51.238;9.562;2023-05-07T09:24:22;16.00;97.60
3416;DHT22;1721;51.238;9.562;2023-05-07T09:26:48;16.10;97.70
3416;DHT22;1721;51.238;9.562;2023-05-07T09:29:15;16.30;98.20
3416;DHT22;1721;51.238;9.562;2023-05-07T09:31:42;16.50;97.40
3416;DHT22;1721;51.238;9.562;2023-05-07T09:34:08;16.60;96.50
3416;DHT22;1721;51.238;9.562;2023-05-07T09:36:33;16.60;96.60
3416;DHT22;1721;51.238;9.562;2023-05-07T09:38:59;16.50;96.90
3416;DHT22;1721;51.238;9.562;2023-05-07T09:41:26;16.30;96.30
3416;DHT22;1721;51.238;9.562;2023-05-07T09:43:55;16.10;97.20
3416;DHT22;1721;51.238;9.562;2023-05-07T09:46:25;16.10;97.10
3416;DHT22;1721;51.238;9.562;2023-05-07T09:48:53;16.10;97.40
3416;DHT22;1721;51.238;9.562;2023-05-07T09:51:25;16.10;97.10
3416;DHT22;1721;51.238;9.562;2023-05-07T09:53:53;16.30;96.50
3416;DHT22;1721;51.238;9.562;2023-05-07T09:56:19;16.40;97.10
3416;DHT22;1721;51.238;9.562;2023-05-07T09:58:46;16.40;97.40
3416;DHT22;1721;51.238;9.562;2023-05-07T10:01:12;16.90;97.50
3416;DHT22;1721;51.238;9.562;2023-05-07T10:03:40;17.40;96.00
3416;DHT22;1721;51.238;9.562;2023-05-07T10:06:08;17.40;97.00
3416;DHT22;1721;51.238;9.562;2023-05-07T10:08:35;17.30;95.60
3416;DHT22;1721;51.238;9.562;2023-05-07T10:11:01;17.30;96.40
3416;DHT22;1721;51.238;9.562;2023-05-07T10:13:28;17.10;96.50
3416;DHT22;1721;51.238;9.562;2023-05-07T10:15:55;17.20;95.90
3416;DHT22;1721;51.238;9.562;2023-05-07T10:18:22;17.20;96.20
3416;DHT22;1721;51.238;9.562;2023-05-07T10:20:51;17.00;95.30
3416;DHT22;1721;51.238;9.562;2023-05-07T10:23:23;17.00;95.40
3416;DHT22;1721;51.238;9.562;2023-05-07T10:25:49;17.10;95.30
3416;DHT22;1721;51.238;9.562;2023-05-07T10:28:15;16.80;95.90
3416;DHT22;1721;51.238;9.562;2023-05-07T10:33:29;17.50;96.50
3416;DHT22;1721;51.238;9.562;2023-05-07T10:35:59;17.70;95.70
3416;DHT22;1721;51.238;9.562;2023-05-07T10:38:27;17.50;94.70
3416;DHT22;1721;51.238;9.562;2023-05-07T10:40:53;17.50;94.40
3416;DHT22;1721;51.238;9.562;2023-05-07T10:43:18;17.30;94.20
3416;DHT22;1721;51.238;9.562;2023-05-07T10:46:17;17.30;95.40
3416;DHT22;1721;51.238;9.562;2023-05-07T10:51:28;17.50;95.10
3416;DHT22;1721;51.238;9.562;2023-05-07T10:56:43;17.50;94.30
3416;DHT22;1721;51.238;9.562;2023-05-07T11:01:57;17.00;95.00
3416;DHT22;1721;51.238;9.562;2023-05-07T11:04:24;17.00;95.80
3416;DHT22;1721;51.238;9.562;2023-05-07T11:12:17;17.10;95.20
3416;DHT22;1721;51.238;9.562;2023-05-07T11:14:44;17.00;95.00
3416;DHT22;1721;51.238;9.562;2023-05-07T11:17:11;17.10;94.40
3416;DHT22;1721;51.238;9.562;2023-05-07T11:25:01;17.20;95.30
3416;DHT22;1721;51.238;9.562;2023-05-07T11:27:27;17.30;95.40
3416;DHT22;1721;51.238;9.562;2023-05-07T11:29:53;17.30;94.80
3416;DHT22;1721;51.238;9.562;2023-05-07T11:32:29;17.40;95.40
3416;DHT22;1721;51.238;9.562;2023-05-07T11:34:56;17.70;95.10
3416;DHT22;1721;51.238;9.562;2023-05-07T11:37:23;17.90;94.70
3416;DHT22;1721;51.238;9.562;2023-05-07T11:39:49;18.00;94.90
3416;DHT22;1721;51.238;9.562;2023-05-07T11:42:28;17.90;95.20
3416;DHT22;1721;51.238;9.562;2023-05-07T11:44:54;17.90;94.60
3416;DHT22;1721;51.238;9.562;2023-05-07T11:47:20;17.80;94.50
3416;DHT22;1721;51.238;9.562;2023-05-07T11:49:50;17.60;95.40
3416;DHT22;1721;51.238;9.562;2023-05-07T11:52:17;17.50;95.20
3416;DHT22;1721;51.238;9.562;2023-05-07T11:54:57;17.30;94.90
3416;DHT22;1721;51.238;9.562;2023-05-07T11:57:24;17.20;94.60
3416;DHT22;1721;51.238;9.562;2023-05-07T11:59:57;17.00;95.50
3416;DHT22;1721;51.238;9.562;2023-05-07T12:02:24;16.90;95.50
3416;DHT22;1721;51.238;9.562;2023-05-07T12:04:50;16.80;95.90
3416;DHT22;1721;51.238;9.562;2023-05-07T12:07:16;16.50;95.60
3416;DHT22;1721;51.238;9.562;2023-05-07T12:09:44;16.70;96.40
3416;DHT22;1721;51.238;9.562;2023-05-07T12:12:10;16.60;96.30
3416;DHT22;1721;51.238;9.562;2023-05-07T12:14:43;16.70;96.40
3416;DHT22;1721;51.238;9.562;2023-05-07T12:17:10;16.90;95.90
3416;DHT22;1721;51.238;9.562;2023-05-07T12:19:37;17.00;95.70
3416;DHT22;1721;51.238;9.562;2023-05-07T12:22:04;17.10;95.70
3416;DHT22;1721;51.238;9.562;2023-05-07T12:24:46;17.00;95.90
3416;DHT22;1721;51.238;9.562;2023-05-07T12:27:13;17.00;96.80
3416;DHT22;1721;51.238;9.562;2023-05-07T12:29:38;16.80;95.30
3416;DHT22;1721;51.238;9.562;2023-05-07T12:32:06;16.90;95.10
3416;DHT22;1721;51.238;9.562;2023-05-07T12:34:32;17.00;95.20
3416;DHT22;1721;51.238;9.562;2023-05-07T12:37:01;16.90;95.00
3416;DHT22;1721;51.238;9.562;2023-05-07T12:39:28;17.00;95.90
3416;DHT22;1721;51.238;9.562;2023-05-07T12:41:58;17.20;95.90
3416;DHT22;1721;51.238;9.562;2023-05-07T12:44:28;17.10;96.10
3416;DHT22;1721;51.238;9.562;2023-05-07T12:46:54;17.20;95.10
3416;DHT22;1721;51.238;9.562;2023-05-07T12:49:20;17.00;95.20
3416;DHT22;1721;51.238;9.562;2023-05-07T12:51:49;16.90;95.60
3416;DHT22;1721;51.238;9.562;2023-05-07T12:54:36;16.90;96.20
3416;DHT22;1721;51.238;9.562;2023-05-07T12:57:09;17.00;96.30
3416;DHT22;1721;51.238;9.562;2023-05-07T12:59:39;17.00;96.50
3416;DHT22;1721;51.238;9.562;2023-05-07T13:02:05;17.00;95.60
3416;DHT22;1721;51.238;9.562;2023-05-07T13:04:31;17.00;95.80
3416;DHT22;1721;51.238;9.562;2023-05-07T13:06:59;17.10;95.80
3416;DHT22;1721;51.238;9.562;2023-05-07T13:09:24;17.10;95.30
3416;DHT22;1721;51.238;9.562;2023-05-07T13:11:50;17.00;95.90
3416;DHT22;1721;51.238;9.562;2023-05-07T13:14:15;16.90;95.80
3416;DHT22;1721;51.238;9.562;2023-05-07T13:16:41;16.90;95.20
3416;DHT22;1721;51.238;9.562;2023-05-07T13:19:06;16.90;95.80
3416;DHT22;1721;51.238;9.562;2023-05-07T13:21:32;16.80;95.70
3416;DHT22;1721;51.238;9.562;2023-05-07T13:23:58;16.80;95.30
3416;DHT22;1721;51.238;9.562;2023-05-07T13:26:24;16.70;95.50
3416;DHT22;1721;51.238;9.562;2023-05-07T13:28:50;16.80;96.50
3416;DHT22;1721;51.238;9.562;2023-05-07T13:31:17;16.70;96.20
3416;DHT22;1721;51.238;9.562;2023-05-07T13:33:43;16.90;96.30
3416;DHT22;1721;51.238;9.562;2023-05-07T13:36:08;17.20;95.60
3416;DHT22;1721;51.238;9.562;2023-05-07T13:38:34;17.30;95.40
3416;DHT22;1721;51.238;9.562;2023-05-07T13:41:00;17.30;95.20
3416;DHT22;1721;51.238;9.562;2023-05-07T13:43:26;17.40;95.40
3416;DHT22;1721;51.238;9.562;2023-05-07T13:45:51;17.20;95.30
3416;DHT22;1721;51.238;9.562;2023-05-07T13:48:17;17.30;95.10
3416;DHT22;1721;51.238;9.562;2023-05-07T13:50:42;17.40;95.30
3416;DHT22;1721;51.238;9.562;2023-05-07T13:53:08;17.50;95.30
3416;DHT22;1721;51.238;9.562;2023-05-07T13:55:33;17.80;95.00
3416;DHT22;1721;51.238;9.562;2023-05-07T13:58:01;18.00;95.00
3416;DHT22;1721;51.238;9.562;2023-05-07T14:00:28;18.30;94.20
3416;DHT22;1721;51.238;9.562;2023-05-07T14:02:55;18.50;93.50
3416;DHT22;1721;51.238;9.562;2023-05-07T14:05:21;18.60;93.50
3416;DHT22;1721;51.238;9.562;2023-05-07T14:07:50;18.40;94.80
3416;DHT22;1721;51.238;9.562;2023-05-07T14:10:17;18.90;93.10
3416;DHT22;1721;51.238;9.562;2023-05-07T14:12:44;18.90;93.30
3416;DHT22;1721;51.238;9.562;2023-05-07T14:15:10;18.80;93.50
3416;DHT22;1721;51.238;9.562;2023-05-07T14:17:36;19.00;93.50
3416;DHT22;1721;51.238;9.562;2023-05-07T14:20:02;19.10;93.20
3416;DHT22;1721;51.238;9.562;2023-05-07T14:22:28;19.10;92.50
3416;DHT22;1721;51.238;9.562;2023-05-07T14:24:53;19.40;92.00
3416;DHT22;1721;51.238;9.562;2023-05-07T14:27:19;19.50;92.00
3416;DHT22;1721;51.238;9.562;2023-05-07T14:29:44;19.50;92.10
3416;DHT22;1721;51.238;9.562;2023-05-07T14:32:11;19.40;92.10
3416;DHT22;1721;51.238;9.562;2023-05-07T14:34:37;19.40;91.60
3416;DHT22;1721;51.238;9.562;2023-05-07T14:37:03;19.20;91.80
3416;DHT22;1721;51.238;9.562;2023-05-07T14:39:28;19.00;92.90
3416;DHT22;1721;51.238;9.562;2023-05-07T14:41:55;18.80;92.50
3416;DHT22;1721;51.238;9.562;2023-05-07T14:44:22;18.70;92.70
3416;DHT22;1721;51.238;9.562;2023-05-07T14:46:47;18.70;92.10
3416;DHT22;1721;51.238;9.562;2023-05-07T14:49:14;18.80;92.10
3416;DHT22;1721;51.238;9.562;2023-05-07T14:51:46;18.90;92.20
3416;DHT22;1721;51.238;9.562;2023-05-07T14:54:15;19.00;93.00
3416;DHT22;1721;51.238;9.562;2023-05-07T14:56:41;18.60;92.10
3416;DHT22;1721;51.238;9.562;2023-05-07T14:59:08;18.40;93.10
3416;DHT22;1721;51.238;9.562;2023-05-07T15:01:36;18.10;93.30
3416;DHT22;1721;51.238;9.562;2023-05-07T15:04:05;18.10;93.80
3416;DHT22;1721;51.238;9.562;2023-05-07T15:06:31;18.10;93.40
3416;DHT22;1721;51.238;9.562;2023-05-07T15:08:57;17.90;93.10
3416;DHT22;1721;51.238;9.562;2023-05-07T15:11:23;18.00;93.30
3416;DHT22;1721;51.238;9.562;2023-05-07T15:13:49;18.00;93.10
3416;DHT22;1721;51.238;9.562;2023-05-07T15:16:15;18.10;93.20
3416;DHT22;1721;51.238;9.562;2023-05-07T15:18:40;18.10;92.80
3416;DHT22;1721;51.238;9.562;2023-05-07T15:21:06;18.10;92.90
3416;DHT22;1721;51.238;9.562;2023-05-07T15:23:31;17.90;93.30
3416;DHT22;1721;51.238;9.562;2023-05-07T15:25:57;17.70;93.80
3416;DHT22;1721;51.238;9.562;2023-05-07T15:28:23;17.70;93.60
3416;DHT22;1721;51.238;9.562;2023-05-07T15:30:49;17.80;93.90
3416;DHT22;1721;51.238;9.562;2023-05-07T15:33:15;17.70;93.70
3416;DHT22;1721;51.238;9.562;2023-05-07T15:35:41;17.50;93.90
3416;DHT22;1721;51.238;9.562;2023-05-07T15:38:06;17.50;94.00
3416;DHT22;1721;51.238;9.562;2023-05-07T15:43:28;17.60;94.20
3416;DHT22;1721;51.238;9.562;2023-05-07T15:45:53;17.30;93.90
3416;DHT22;1721;51.238;9.562;2023-05-07T15:48:19;17.20;94.30
3416;DHT22;1721;51.238;9.562;2023-05-07T15:50:45;17.10;94.50
3416;DHT22;1721;51.238;9.562;2023-05-07T15:53:11;16.90;94.50
3416;DHT22;1721;51.238;9.562;2023-05-07T15:55:39;16.90;94.60
3416;DHT22;1721;51.238;9.562;2023-05-07T15:58:05;17.00;94.20
3416;DHT22;1721;51.238;9.562;2023-05-07T16:00:31;17.10;94.20
3416;DHT22;1721;51.238;9.562;2023-05-07T16:02:57;17.30;93.70
3416;DHT22;1721;51.238;9.562;2023-05-07T16:05:22;17.20;93.60
3416;DHT22;1721;51.238;9.562;2023-05-07T16:07:48;17.10;93.60
3416;DHT22;1721;51.238;9.562;2023-05-07T16:10:14;17.10;93.60
3416;DHT22;1721;51.238;9.562;2023-05-07T16:12:40;17.10;93.40
3416;DHT22;1721;51.238;9.562;2023-05-07T16:15:06;17.20;93.60
3416;DHT22;1721;51.238;9.562;2023-05-07T16:17:32;17.00;93.60
3416;DHT22;1721;51.238;9.562;2023-05-07T16:19:58;17.20;93.60
3416;DHT22;1721;51.238;9.562;2023-05-07T16:22:24;17.10;93.50